Time;durP1;ratioP1;P1;durP2;ratioP2;P2;SDS_P1;SDS_P2;PMS_P1;PMS_P2;Temp;Humidity;BMP_temperature;BMP_pressure;BME280_temperature;BME280_humidity;BME280_pressure;Samples;Min_cycle;Max_cycle;Signal;HPM_P1;HPM_P2
2022/12/30 00:00:30;;;;;;;2.30;1.70;;;12.40;63.30;;;;;;5082919;28;20857;-89
2022/12/30 00:02:57;;;;;;;5.60;1.97;;;12.40;63.60;;;;;;5067778;28;20450;-87
2022/12/30 00:05:24;;;;;;;3.20;1.70;;;12.40;63.40;;;;;;5067420;28;20548;-87
2022/12/30 00:07:51;;;;;;;8.43;1.90;;;12.50;62.60;;;;;;5060434;28;20466;-87
2022/12/30 00:10:18;;;;;;;6.77;3.50;;;12.40;61.80;;;;;;5083710;28;20452;-86
2022/12/30 00:34:56;;;;;;;2.80;1.50;;;12.80;59.40;;;;;;5067927;28;20453;-85
2022/12/30 00:37:23;;;;;;;4.70;1.40;;;12.70;59.10;;;;;;5084652;28;20467;-90
2022/12/30 00:39:50;;;;;;;2.23;1.80;;;12.50;60.10;;;;;;5067911;28;20823;-88
2022/12/30 00:45:01;;;;;;;7.23;1.23;;;12.30;60.60;;;;;;5075925;28;20474;-90
2022/12/30 00:47:29;;;;;;;4.50;1.60;;;12.40;60.50;;;;;;5082235;28;20865;-87
2022/12/30 00:58:09;;;;;;;10.67;2.10;;;11.90;62.00;;;;;;5067608;28;20473;-90
2022/12/30 01:00:36;;;;;;;4.80;1.90;;;12.00;61.90;;;;;;5049954;28;20982;-87
2022/12/30 01:03:05;;;;;;;2.00;1.33;;;11.80;62.10;;;;;;5051884;28;20465;-87
2022/12/30 01:05:32;;;;;;;4.17;1.10;;;11.80;62.40;;;;;;5062055;27;20680;-89
2022/12/30 01:07:59;;;;;;;4.07;2.00;;;12.00;61.70;;;;;;5050003;28;20485;-89
2022/12/30 01:10:26;;;;;;;7.17;2.00;;;12.10;61.50;;;;;;5060493;27;21010;-87
2022/12/30 01:12:53;;;;;;;1.97;1.77;;;12.00;61.30;;;;;;5050426;28;20462;-88
2022/12/30 01:15:19;;;;;;;4.60;1.70;;;11.80;61.80;;;;;;5068437;28;21002;-87
2022/12/30 01:17:46;;;;;;;4.63;2.00;;;11.70;62.80;;;;;;5053446;28;20474;-87
2022/12/30 01:20:15;;;;;;;2.80;1.60;;;11.60;62.70;;;;;;5064253;28;20447;-88
2022/12/30 01:22:42;;;;;;;1.97;1.30;;;11.80;61.90;;;;;;5066545;28;20454;-86
2022/12/30 01:25:09;;;;;;;2.80;1.53;;;12.00;61.20;;;;;;5070305;28;20459;-87
2022/12/30 01:27:36;;;;;;;4.70;2.00;;;12.20;60.40;;;;;;5067811;28;21076;-90
2022/12/30 01:30:04;;;;;;;7.73;3.57;;;12.30;59.70;;;;;;5053774;28;20573;-89
2022/12/30 01:32:32;;;;;;;4.07;2.80;;;12.40;59.70;;;;;;5071810;28;20451;-88
2022/12/30 01:34:59;;;;;;;8.37;3.93;;;12.40;58.80;;;;;;5042589;28;20504;-87
2022/12/30 01:37:28;;;;;;;8.83;5.00;;;12.40;58.80;;;;;;5085169;28;21008;-87
2022/12/30 01:39:55;;;;;;;4.80;3.40;;;12.10;58.80;;;;;;5066728;28;20479;-86
2022/12/30 01:42:24;;;;;;;5.40;2.03;;;12.00;59.20;;;;;;5066133;28;21031;-86
2022/12/30 01:44:58;;;;;;;2.87;1.70;;;12.00;59.50;;;;;;5066636;28;20638;-87
2022/12/30 01:47:36;;;;;;;8.03;2.27;;;12.00;59.20;;;;;;5048658;28;20476;-88
2022/12/30 01:50:16;;;;;;;1.90;1.70;;;12.10;58.70;;;;;;5074442;28;20903;-87
2022/12/30 01:52:49;;;;;;;4.23;2.20;;;12.30;58.50;;;;;;5066508;28;20811;-87
2022/12/30 01:55:19;;;;;;;3.53;2.20;;;12.20;58.60;;;;;;5069004;28;20447;-89
2022/12/30 01:57:50;;;;;;;3.17;1.93;;;12.00;59.30;;;;;;5048914;28;20497;-87
2022/12/30 02:00:18;;;;;;;8.23;2.37;;;11.80;59.90;;;;;;5051569;28;20779;-87
2022/12/30 02:02:45;;;;;;;9.20;2.47;;;11.80;60.30;;;;;;5065841;28;20454;-87
2022/12/30 02:05:13;;;;;;;2.70;1.50;;;11.80;60.40;;;;;;5065779;28;20538;-86
2022/12/30 02:07:46;;;;;;;2.27;1.70;;;12.00;59.80;;;;;;5048781;28;20853;-87
2022/12/30 02:10:13;;;;;;;4.93;2.20;;;11.90;59.50;;;;;;5042332;28;20528;-87
2022/12/30 02:12:40;;;;;;;6.17;1.53;;;11.70;59.90;;;;;;5049109;28;20447;-87
2022/12/30 02:15:09;;;;;;;10.83;1.60;;;11.50;60.60;;;;;;5042775;28;20435;-87
2022/12/30 02:17:47;;;;;;;3.10;1.70;;;11.40;61.20;;;;;;5087585;28;20467;-87
2022/12/30 02:20:53;;;;;;;1.80;1.60;;;11.40;61.90;;;;;;5070756;28;21033;-88
2022/12/30 02:23:43;;;;;;;4.47;1.80;;;11.50;61.40;;;;;;5033639;28;20434;-86
2022/12/30 02:26:48;;;;;;;4.70;2.13;;;11.50;61.30;;;;;;5056286;28;20489;-89
2022/12/30 02:29:55;;;;;;;2.63;1.80;;;11.80;61.00;;;;;;5071808;28;20461;-87
2022/12/30 02:32:31;;;;;;;8.20;2.53;;;11.60;61.40;;;;;;5021072;28;20542;-87
2022/12/30 02:35:07;;;;;;;3.07;1.43;;;11.70;61.60;;;;;;5070225;28;20438;-89
2022/12/30 02:37:42;;;;;;;3.70;2.23;;;11.50;62.00;;;;;;5053096;28;20465;-87
2022/12/30 02:40:17;;;;;;;2.40;1.77;;;11.40;62.40;;;;;;5055281;28;20447;-87
2022/12/30 02:45:40;;;;;;;6.80;1.90;;;11.30;63.10;;;;;;5070354;27;20486;-87
2022/12/30 02:48:14;;;;;;;8.33;2.13;;;11.20;63.50;;;;;;5062418;28;20815;-86
2022/12/30 02:53:33;;;;;;;9.43;2.30;;;11.10;63.80;;;;;;5060318;28;20450;-87
2022/12/30 02:56:00;;;;;;;3.20;2.00;;;11.10;64.00;;;;;;5068804;28;20473;-87
2022/12/30 02:58:31;;;;;;;10.27;2.00;;;11.10;63.90;;;;;;5052907;28;20525;-85
2022/12/30 03:04:10;;;;;;;3.40;2.30;;;11.50;62.70;;;;;;5050080;28;20443;-87
2022/12/30 03:07:14;;;;;;;5.60;1.70;;;11.50;62.10;;;;;;5070087;28;20851;-89
2022/12/30 03:12:41;;;;;;;12.63;2.60;;;11.50;61.70;;;;;;5075758;28;20539;-89
2022/12/30 03:15:15;;;;;;;6.57;2.10;;;11.30;61.90;;;;;;5084625;28;20796;-87
2022/12/30 03:17:44;;;;;;;5.73;1.70;;;11.50;61.30;;;;;;5066798;28;20708;-87
2022/12/30 03:20:15;;;;;;;3.90;1.67;;;11.60;60.40;;;;;;5047689;28;20825;-88
2022/12/30 03:28:19;;;;;;;4.03;1.87;;;11.20;60.20;;;;;;5050972;28;20439;-88
2022/12/30 03:30:50;;;;;;;3.30;1.90;;;11.30;60.60;;;;;;5068423;28;20471;-87
2022/12/30 03:33:19;;;;;;;3.63;1.87;;;11.10;60.90;;;;;;5069039;28;20443;-87
2022/12/30 03:35:55;;;;;;;2.93;2.10;;;11.10;60.70;;;;;;5069461;28;20993;-87
2022/12/30 03:38:28;;;;;;;7.30;2.07;;;11.10;60.70;;;;;;5069259;28;20454;-87
2022/12/30 03:40:57;;;;;;;4.23;1.90;;;11.20;60.20;;;;;;5067724;28;20514;-87
2022/12/30 03:43:26;;;;;;;3.43;1.90;;;11.30;59.90;;;;;;5065430;28;20475;-89
2022/12/30 03:45:54;;;;;;;3.57;1.87;;;11.30;59.70;;;;;;5055237;28;20490;-87
2022/12/30 03:48:21;;;;;;;5.17;1.60;;;11.30;59.70;;;;;;5045362;28;20985;-88
2022/12/30 03:50:49;;;;;;;5.37;2.03;;;11.40;59.20;;;;;;5040666;27;20451;-89
2022/12/30 03:53:16;;;;;;;6.83;2.50;;;11.20;59.50;;;;;;5068750;28;20542;-87
2022/12/30 03:55:43;;;;;;;4.13;1.50;;;11.20;59.60;;;;;;5068661;28;20814;-90
2022/12/30 03:58:10;;;;;;;7.07;2.13;;;11.20;59.30;;;;;;5052968;28;20447;-87
2022/12/30 04:00:37;;;;;;;7.97;1.60;;;11.10;59.50;;;;;;5084417;28;20450;-86
2022/12/30 04:03:04;;;;;;;8.10;1.90;;;11.20;59.30;;;;;;5068469;28;20443;-89
2022/12/30 04:05:31;;;;;;;7.47;1.80;;;11.10;59.30;;;;;;5078483;28;20991;-89
2022/12/30 04:07:59;;;;;;;6.57;2.10;;;11.20;59.10;;;;;;5040747;28;20447;-87
2022/12/30 04:10:26;;;;;;;8.53;2.03;;;11.20;58.90;;;;;;5065532;28;20470;-87
2022/12/30 04:12:53;;;;;;;5.47;2.23;;;11.20;59.00;;;;;;5067764;28;20453;-88
2022/12/30 04:15:20;;;;;;;2.80;1.70;;;11.30;58.50;;;;;;5058425;28;20446;-90
2022/12/30 04:17:47;;;;;;;3.60;2.10;;;11.20;58.40;;;;;;5061505;27;20564;-85
2022/12/30 04:20:16;;;;;;;7.10;2.40;;;11.20;58.40;;;;;;5104093;28;20784;-87
2022/12/30 04:22:43;;;;;;;2.87;1.80;;;11.10;58.90;;;;;;5086843;28;20455;-88
2022/12/30 04:25:11;;;;;;;6.73;2.00;;;11.10;58.80;;;;;;5083561;28;21039;-86
2022/12/30 04:27:38;;;;;;;4.27;2.27;;;11.10;58.70;;;;;;5067694;28;20972;-87
2022/12/30 04:30:07;;;;;;;4.93;2.10;;;11.20;58.60;;;;;;5066590;28;20932;-86
2022/12/30 04:32:34;;;;;;;6.97;3.60;;;11.00;59.10;;;;;;5076734;28;20534;-88
2022/12/30 04:35:01;;;;;;;5.60;2.97;;;10.70;59.60;;;;;;5067353;28;20439;-86
2022/12/30 04:37:28;;;;;;;9.50;3.80;;;10.60;60.50;;;;;;5068261;28;20470;-87
2022/12/30 04:39:55;;;;;;;7.87;4.60;;;10.40;61.20;;;;;;5047963;28;20524;-89
2022/12/30 04:42:23;;;;;;;7.13;3.67;;;10.20;62.20;;;;;;5083100;28;20794;-88
2022/12/30 04:44:50;;;;;;;7.33;3.33;;;10.30;62.30;;;;;;5042165;28;20450;-87
2022/12/30 04:47:17;;;;;;;4.10;2.07;;;10.20;62.30;;;;;;5052341;28;20478;-87
2022/12/30 04:49:44;;;;;;;6.90;2.00;;;10.30;62.60;;;;;;5069183;28;20448;-87
2022/12/30 04:52:11;;;;;;;6.87;2.53;;;10.40;62.40;;;;;;5050570;28;20456;-87
2022/12/30 04:54:39;;;;;;;6.47;3.07;;;10.50;61.70;;;;;;5058412;28;20450;-87
2022/12/30 04:57:06;;;;;;;4.30;2.07;;;10.30;62.30;;;;;;5049122;28;20463;-87
2022/12/30 04:59:34;;;;;;;3.40;2.10;;;10.30;62.70;;;;;;5065839;28;20545;-87
2022/12/30 05:02:01;;;;;;;10.80;3.30;;;10.30;62.30;;;;;;5074461;28;20812;-89
2022/12/30 05:04:28;;;;;;;9.03;3.70;;;10.20;63.30;;;;;;5080634;28;20454;-87
2022/12/30 05:06:56;;;;;;;8.30;3.20;;;10.30;62.80;;;;;;5049269;28;20527;-88
2022/12/30 05:09:24;;;;;;;7.20;3.10;;;10.40;62.50;;;;;;5068863;28;20442;-88
2022/12/30 05:11:51;;;;;;;7.00;3.03;;;10.50;62.00;;;;;;5066826;28;20450;-86
2022/12/30 05:14:18;;;;;;;5.40;2.60;;;10.40;62.20;;;;;;5052120;28;20447;-88
2022/12/30 05:16:46;;;;;;;5.67;2.53;;;10.20;63.10;;;;;;5082803;28;20479;-86
2022/12/30 05:19:13;;;;;;;3.67;3.00;;;10.20;63.40;;;;;;5072521;28;20455;-88
2022/12/30 05:21:40;;;;;;;3.10;2.73;;;10.20;63.10;;;;;;5066821;28;20493;-86
2022/12/30 05:26:55;;;;;;;8.93;2.90;;;10.30;62.40;;;;;;5065617;28;20471;-87
2022/12/30 05:29:22;;;;;;;9.20;3.80;;;10.40;62.30;;;;;;5069046;28;20798;-87
2022/12/30 05:31:50;;;;;;;6.13;2.63;;;10.50;61.70;;;;;;5043099;28;20528;-85
2022/12/30 05:34:17;;;;;;;8.40;2.60;;;10.50;62.10;;;;;;5076157;28;20473;-88
2022/12/30 05:36:44;;;;;;;7.13;2.30;;;10.30;62.00;;;;;;5050486;28;20840;-89
2022/12/30 05:39:12;;;;;;;8.33;2.90;;;10.00;63.10;;;;;;5077459;28;20454;-86
2022/12/30 05:41:39;;;;;;;6.47;2.87;;;10.10;63.20;;;;;;5062895;28;20500;-87
2022/12/30 05:44:06;;;;;;;10.50;2.70;;;10.50;62.90;;;;;;5054180;28;20447;-87
2022/12/30 05:46:33;;;;;;;8.27;2.67;;;10.50;61.40;;;;;;5068011;28;20946;-86
2022/12/30 05:49:02;;;;;;;7.40;2.60;;;10.70;60.90;;;;;;5083216;28;20828;-88
2022/12/30 05:51:29;;;;;;;8.27;2.43;;;10.70;60.60;;;;;;5051734;28;20886;-88
2022/12/30 05:53:56;;;;;;;8.33;3.00;;;10.90;60.00;;;;;;5069941;28;20465;-89
2022/12/30 05:56:23;;;;;;;6.13;2.23;;;11.00;59.20;;;;;;5068300;28;20523;-85
2022/12/30 05:58:50;;;;;;;5.07;2.67;;;10.70;59.60;;;;;;5069463;28;20450;-89
2022/12/30 06:01:17;;;;;;;9.33;2.87;;;10.60;59.80;;;;;;5055109;28;20535;-87
2022/12/30 06:03:44;;;;;;;7.73;2.60;;;10.60;60.10;;;;;;5055570;28;21058;-87
2022/12/30 06:06:12;;;;;;;8.43;3.07;;;10.70;59.90;;;;;;5052240;28;21060;-85
2022/12/30 06:08:40;;;;;;;12.43;3.57;;;10.70;59.30;;;;;;5047062;28;20451;-90
2022/12/30 06:11:08;;;;;;;8.93;3.50;;;10.50;59.70;;;;;;5054252;28;20798;-87
2022/12/30 06:13:35;;;;;;;6.50;3.37;;;10.50;59.90;;;;;;5071216;27;20461;-90
2022/12/30 06:16:02;;;;;;;11.90;3.97;;;10.50;59.50;;;;;;5052523;28;20903;-86
2022/12/30 06:18:29;;;;;;;9.43;3.60;;;10.50;59.50;;;;;;5055033;28;20526;-86
2022/12/30 06:20:56;;;;;;;6.73;3.57;;;10.30;60.00;;;;;;5100307;27;20991;-88
2022/12/30 06:23:25;;;;;;;9.60;3.40;;;10.50;59.50;;;;;;5050232;28;20454;-89
2022/12/30 06:25:53;;;;;;;8.10;3.83;;;10.50;59.30;;;;;;5070110;28;20477;-88
2022/12/30 06:28:20;;;;;;;9.00;3.97;;;10.50;59.50;;;;;;5061951;28;20450;-89
2022/12/30 06:30:48;;;;;;;8.03;3.73;;;10.50;59.30;;;;;;5053669;28;20469;-89
2022/12/30 06:33:15;;;;;;;5.23;4.13;;;10.70;59.50;;;;;;5071433;28;20451;-87
2022/12/30 06:35:42;;;;;;;4.33;3.90;;;10.80;58.50;;;;;;5068625;28;20935;-88
2022/12/30 06:38:09;;;;;;;7.73;3.03;;;10.80;58.20;;;;;;5070279;28;21406;-86
2022/12/30 06:40:38;;;;;;;7.40;3.83;;;10.80;58.50;;;;;;5066163;27;20860;-88
2022/12/30 06:43:05;;;;;;;9.30;3.00;;;10.90;58.60;;;;;;5068746;28;20447;-89
2022/12/30 06:45:32;;;;;;;6.77;4.43;;;11.00;57.80;;;;;;5070770;28;20867;-86
2022/12/30 06:47:59;;;;;;;9.70;4.17;;;10.90;57.40;;;;;;5053247;28;20451;-88
2022/12/30 06:50:26;;;;;;;9.90;3.73;;;10.80;57.40;;;;;;5088470;28;20454;-86
2022/12/30 06:52:53;;;;;;;6.83;3.63;;;10.80;57.50;;;;;;5052390;28;20505;-86
2022/12/30 06:55:21;;;;;;;7.90;3.60;;;10.60;58.00;;;;;;5062986;28;20470;-87
2022/12/30 06:57:50;;;;;;;7.60;3.90;;;10.40;59.30;;;;;;5053629;28;20602;-89
2022/12/30 07:00:18;;;;;;;3.50;3.20;;;10.40;59.50;;;;;;5054624;28;20443;-86
2022/12/30 07:02:45;;;;;;;6.47;3.60;;;10.40;59.90;;;;;;5052617;28;20955;-88
2022/12/30 07:05:11;;;;;;;6.00;3.50;;;10.40;59.90;;;;;;5069153;28;20550;-86
2022/12/30 07:07:38;;;;;;;9.57;4.50;;;10.60;59.50;;;;;;5070907;27;20463;-87
2022/12/30 07:10:06;;;;;;;28.20;12.93;;;10.80;59.10;;;;;;5068861;28;20450;-87
2022/12/30 07:12:33;;;;;;;22.50;9.17;;;10.80;58.70;;;;;;5087891;28;20447;-88
2022/12/30 07:15:01;;;;;;;18.83;9.70;;;10.80;59.30;;;;;;5084549;28;20443;-87
2022/12/30 07:17:28;;;;;;;9.17;4.80;;;10.90;60.20;;;;;;5053582;28;20707;-86
2022/12/30 07:19:55;;;;;;;10.93;5.20;;;10.90;59.80;;;;;;5067022;27;20471;-88
2022/12/30 07:22:22;;;;;;;14.10;7.90;;;11.00;59.60;;;;;;5074868;28;20701;-87
2022/12/30 07:24:49;;;;;;;8.50;5.70;;;10.90;58.60;;;;;;5052508;28;20452;-86
2022/12/30 07:27:16;;;;;;;11.20;5.67;;;10.80;59.20;;;;;;5053447;28;20469;-87
2022/12/30 07:29:43;;;;;;;15.63;7.00;;;10.60;60.90;;;;;;5061616;27;20444;-87
2022/12/30 07:32:11;;;;;;;9.23;5.40;;;10.60;61.50;;;;;;5086621;28;20530;-85
2022/12/30 07:34:38;;;;;;;12.43;6.67;;;10.60;62.50;;;;;;5060694;27;20458;-87
2022/12/30 07:37:06;;;;;;;9.70;5.73;;;10.70;62.90;;;;;;5061740;28;20565;-87
2022/12/30 07:39:33;;;;;;;10.90;6.30;;;10.80;63.20;;;;;;5069274;28;20452;-90
2022/12/30 07:42:00;;;;;;;20.40;10.90;;;11.00;62.50;;;;;;5064951;28;20469;-88
2022/12/30 07:44:27;;;;;;;10.37;7.10;;;10.90;59.60;;;;;;5051181;28;20470;-88
2022/12/30 07:46:54;;;;;;;27.47;22.67;;;10.50;59.10;;;;;;5049405;28;20486;-89
2022/12/30 07:49:23;;;;;;;9.23;7.67;;;10.70;58.70;;;;;;5049900;28;20453;-87
2022/12/30 07:51:50;;;;;;;8.20;4.00;;;10.70;58.40;;;;;;5064796;28;20951;-87
2022/12/30 07:54:17;;;;;;;8.83;4.63;;;10.50;58.40;;;;;;5066693;28;20790;-87
2022/12/30 07:56:44;;;;;;;18.40;9.87;;;10.40;58.70;;;;;;5064930;27;20984;-88
2022/12/30 07:59:11;;;;;;;12.73;6.60;;;10.30;58.90;;;;;;5065814;28;20454;-88
2022/12/30 08:01:38;;;;;;;11.67;6.27;;;10.30;59.40;;;;;;5066101;27;20534;-85
2022/12/30 08:04:06;;;;;;;13.10;7.03;;;10.40;59.20;;;;;;5048245;28;20672;-87
2022/12/30 08:06:34;;;;;;;12.57;7.60;;;10.50;59.50;;;;;;5060360;28;20459;-86
2022/12/30 08:09:04;;;;;;;12.03;6.90;;;10.70;59.10;;;;;;5083106;28;20811;-87
2022/12/30 08:11:31;;;;;;;20.87;8.00;;;10.60;58.80;;;;;;5049070;28;20815;-88
2022/12/30 08:13:58;;;;;;;13.47;8.87;;;10.70;59.10;;;;;;5042383;27;20454;-87
2022/12/30 08:16:25;;;;;;;18.80;8.67;;;10.80;58.50;;;;;;5049843;28;20455;-86
2022/12/30 08:18:52;;;;;;;16.20;9.20;;;10.70;58.80;;;;;;5065632;28;20956;-86
2022/12/30 08:21:19;;;;;;;11.17;8.37;;;10.30;61.90;;;;;;5066719;28;20553;-87
2022/12/30 08:23:48;;;;;;;12.10;5.80;;;10.20;62.90;;;;;;5075499;28;20446;-89
2022/12/30 08:26:16;;;;;;;27.93;16.70;;;10.30;63.20;;;;;;5069199;28;20466;-87
2022/12/30 08:28:43;;;;;;;22.50;13.07;;;10.40;60.90;;;;;;5056514;27;20454;-89
2022/12/30 08:31:12;;;;;;;23.37;11.97;;;10.50;59.60;;;;;;5047734;28;20482;-87
2022/12/30 08:33:39;;;;;;;21.10;11.40;;;10.30;59.30;;;;;;5058889;27;20450;-87
2022/12/30 08:36:09;;;;;;;16.53;7.77;;;10.50;59.80;;;;;;5064691;28;20545;-87
2022/12/30 08:38:37;;;;;;;39.27;16.00;;;10.60;59.80;;;;;;5068599;28;20500;-87
2022/12/30 08:41:08;;;;;;;40.80;14.60;;;10.80;60.20;;;;;;5061910;28;21152;-88
2022/12/30 08:43:35;;;;;;;18.40;8.23;;;10.90;60.40;;;;;;5088075;28;20451;-87
2022/12/30 08:46:03;;;;;;;15.10;7.00;;;10.80;61.30;;;;;;5069292;28;20542;-85
2022/12/30 08:48:31;;;;;;;9.90;5.73;;;10.90;60.90;;;;;;5072376;28;20505;-87
2022/12/30 08:50:58;;;;;;;8.20;4.47;;;10.90;61.30;;;;;;5054710;28;20556;-86
2022/12/30 08:53:25;;;;;;;8.33;5.07;;;10.80;61.60;;;;;;5070610;28;20826;-85
2022/12/30 08:56:00;;;;;;;14.17;5.47;;;10.90;61.80;;;;;;5069629;28;20467;-88
2022/12/30 08:58:28;;;;;;;13.00;6.20;;;11.10;61.60;;;;;;5055186;28;20454;-87
2022/12/30 09:00:55;;;;;;;14.27;6.53;;;11.30;61.10;;;;;;5069085;28;20499;-87
2022/12/30 09:03:22;;;;;;;29.87;12.27;;;11.30;60.30;;;;;;5054729;28;20985;-86
2022/12/30 09:05:52;;;;;;;12.73;6.57;;;11.30;60.30;;;;;;5062236;28;20466;-86
2022/12/30 09:08:19;;;;;;;45.87;17.53;;;11.40;60.60;;;;;;5064063;28;20462;-88
2022/12/30 09:10:55;;;;;;;31.33;12.00;;;11.30;60.40;;;;;;5063661;27;20458;-87
2022/12/30 09:13:22;;;;;;;24.93;10.67;;;11.00;61.70;;;;;;5085914;28;20530;-86
2022/12/30 09:15:51;;;;;;;26.03;11.17;;;11.10;61.20;;;;;;5071172;28;20477;-86
2022/12/30 09:18:18;;;;;;;28.77;9.77;;;11.00;62.10;;;;;;5051917;28;20856;-88
2022/12/30 09:20:45;;;;;;;43.50;16.20;;;11.10;61.70;;;;;;5047912;28;20688;-86
2022/12/30 09:23:12;;;;;;;18.50;7.20;;;11.20;61.40;;;;;;5056697;28;20933;-90
2022/12/30 09:25:38;;;;;;;20.07;5.23;;;11.30;61.30;;;;;;5069779;28;20496;-90
2022/12/30 09:28:05;;;;;;;11.00;3.90;;;11.30;60.60;;;;;;5064668;28;20458;-88
2022/12/30 09:30:32;;;;;;;9.67;5.10;;;11.20;61.30;;;;;;5071717;28;20554;-86
2022/12/30 09:33:01;;;;;;;5.50;3.60;;;11.40;61.00;;;;;;5075258;28;20466;-88
2022/12/30 09:35:28;;;;;;;6.20;2.50;;;11.30;61.00;;;;;;5062301;28;20475;-88
2022/12/30 09:37:55;;;;;;;6.10;2.80;;;11.20;61.60;;;;;;5066965;28;20990;-87
2022/12/30 09:40:34;;;;;;;2.83;2.13;;;11.30;61.50;;;;;;5068947;28;20473;-86
2022/12/30 09:46:08;;;;;;;10.20;7.13;;;11.60;60.50;;;;;;5058174;28;20455;-87
2022/12/30 09:48:42;;;;;;;6.73;4.00;;;10.90;62.10;;;;;;5069266;28;20502;-86
2022/12/30 09:51:14;;;;;;;5.30;3.40;;;11.00;62.10;;;;;;5085152;28;21020;-87
2022/12/30 09:53:46;;;;;;;96.70;56.83;;;10.90;63.00;;;;;;5086858;28;20443;-89
2022/12/30 09:56:16;;;;;;;10.37;7.97;;;10.90;62.80;;;;;;5072193;28;20478;-90
2022/12/30 09:58:45;;;;;;;3.67;2.93;;;11.20;62.40;;;;;;5052510;28;20530;-88
2022/12/30 10:01:20;;;;;;;12.03;7.37;;;11.50;61.20;;;;;;5069174;28;20435;-88
2022/12/30 10:03:51;;;;;;;6.53;5.27;;;11.70;60.60;;;;;;5087098;28;20485;-89
2022/12/30 10:06:24;;;;;;;10.20;8.47;;;11.90;59.80;;;;;;5053017;28;20550;-88
2022/12/30 10:09:38;;;;;;;12.77;7.50;;;11.90;59.70;;;;;;5077988;28;20481;-87
2022/12/30 10:12:27;;;;;;;8.33;5.63;;;11.90;59.60;;;;;;5040611;28;20454;-90
2022/12/30 10:15:07;;;;;;;15.67;9.60;;;12.00;59.40;;;;;;5049789;28;20530;-88
2022/12/30 10:17:57;;;;;;;7.37;4.70;;;11.90;59.50;;;;;;5084380;28;20467;-89
2022/12/30 10:20:55;;;;;;;8.70;2.50;;;12.00;59.60;;;;;;5049435;28;20443;-88
2022/12/30 10:23:39;;;;;;;9.20;4.50;;;12.00;59.50;;;;;;5084052;28;20529;-89
2022/12/30 10:26:12;;;;;;;3.20;1.80;;;11.60;60.50;;;;;;5046578;28;20479;-89
2022/12/30 10:28:44;;;;;;;7.27;4.17;;;11.50;60.70;;;;;;5048324;28;20466;-89
2022/12/30 10:31:18;;;;;;;4.97;4.00;;;11.50;60.60;;;;;;5049555;28;20459;-88
2022/12/30 10:33:48;;;;;;;5.10;2.20;;;11.30;61.20;;;;;;5057176;28;20454;-89
2022/12/30 10:36:19;;;;;;;4.73;2.83;;;11.10;61.80;;;;;;5078406;28;20888;-88
2022/12/30 10:38:46;;;;;;;3.70;1.60;;;10.90;62.40;;;;;;5070206;28;20476;-88
2022/12/30 10:41:30;;;;;;;2.03;1.43;;;10.90;63.10;;;;;;5043521;28;20494;-89
2022/12/30 10:44:07;;;;;;;3.40;2.10;;;11.20;62.20;;;;;;5068138;27;20464;-89
2022/12/30 10:46:46;;;;;;;2.10;1.80;;;11.30;61.30;;;;;;5055011;28;20474;-87
2022/12/30 10:49:31;;;;;;;2.10;1.60;;;11.30;61.60;;;;;;5051763;28;20951;-88
2022/12/30 10:51:59;;;;;;;9.30;7.87;;;11.10;61.90;;;;;;5068103;27;20447;-88
2022/12/30 10:54:26;;;;;;;3.07;2.87;;;11.20;62.40;;;;;;5050221;28;20661;-87
2022/12/30 10:56:53;;;;;;;2.97;2.70;;;11.40;61.50;;;;;;5054914;28;20494;-89
2022/12/30 10:59:23;;;;;;;4.47;1.70;;;11.40;61.50;;;;;;5074440;28;20455;-89
2022/12/30 11:01:55;;;;;;;3.13;1.70;;;11.50;61.60;;;;;;5072147;27;20449;-88
2022/12/30 11:04:37;;;;;;;2.20;1.20;;;11.80;60.30;;;;;;5089659;28;20971;-88
2022/12/30 11:07:08;;;;;;;4.30;2.33;;;11.80;59.70;;;;;;5101995;27;20472;-86
2022/12/30 11:09:35;;;;;;;2.13;1.57;;;11.90;63.30;;;;;;5051635;28;20446;-86
2022/12/30 11:14:58;;;;;;;3.47;2.50;;;12.00;62.40;;;;;;5067229;27;20819;-86
2022/12/30 11:17:27;;;;;;;2.30;1.53;;;12.10;60.30;;;;;;5087578;28;20458;-86
2022/12/30 11:19:57;;;;;;;2.40;1.47;;;11.80;61.30;;;;;;5066664;28;20443;-88
2022/12/30 11:22:26;;;;;;;2.53;1.53;;;11.90;61.30;;;;;;5055979;28;20484;-88
2022/12/30 11:25:01;;;;;;;6.50;2.97;;;12.20;60.00;;;;;;5052819;27;20934;-89
2022/12/30 11:27:44;;;;;;;2.07;1.33;;;12.50;59.00;;;;;;5084592;28;20466;-89
2022/12/30 11:30:25;;;;;;;2.43;1.40;;;12.50;59.20;;;;;;5047869;28;20526;-88
2022/12/30 11:32:54;;;;;;;3.53;2.80;;;12.60;58.70;;;;;;5054402;28;20965;-89
2022/12/30 11:35:36;;;;;;;1.40;1.30;;;12.70;58.10;;;;;;5058169;28;20443;-88
2022/12/30 11:38:07;;;;;;;1.10;1.00;;;12.40;58.40;;;;;;5066525;28;20875;-87
2022/12/30 11:40:35;;;;;;;8.47;2.50;;;12.40;58.90;;;;;;5069054;28;20454;-87
2022/12/30 11:43:09;;;;;;;1.40;1.23;;;12.00;59.30;;;;;;5040167;28;20451;-88
2022/12/30 11:45:40;;;;;;;2.13;1.70;;;11.50;60.50;;;;;;5044226;28;20537;-87
2022/12/30 11:48:19;;;;;;;2.57;2.10;;;11.50;60.30;;;;;;5076890;28;20466;-87
2022/12/30 11:50:52;;;;;;;2.57;1.67;;;11.80;60.50;;;;;;5062372;28;20442;-86
2022/12/30 11:53:25;;;;;;;2.93;2.10;;;11.90;59.60;;;;;;5067982;28;20443;-87
2022/12/30 11:55:53;;;;;;;1.30;1.20;;;12.20;59.90;;;;;;5082094;28;20463;-87
2022/12/30 11:58:21;;;;;;;1.50;1.20;;;12.40;59.10;;;;;;5066817;28;20436;-88
2022/12/30 12:00:56;;;;;;;1.40;1.30;;;12.20;58.50;;;;;;5068730;27;20454;-88
2022/12/30 12:03:25;;;;;;;2.10;1.40;;;12.30;58.70;;;;;;5085976;28;20833;-87
2022/12/30 12:06:08;;;;;;;2.97;1.33;;;12.40;58.30;;;;;;5081640;27;20467;-88
2022/12/30 12:08:42;;;;;;;1.40;1.10;;;12.50;58.20;;;;;;5079530;28;20554;-88
2022/12/30 12:11:16;;;;;;;3.33;1.30;;;12.60;58.20;;;;;;5077760;28;20907;-86
2022/12/30 12:13:52;;;;;;;6.20;1.70;;;12.60;57.90;;;;;;5066291;28;20455;-88
2022/12/30 12:16:30;;;;;;;1.73;1.30;;;12.60;57.80;;;;;;5083868;28;20474;-88
2022/12/30 12:19:07;;;;;;;2.40;1.20;;;12.60;57.10;;;;;;5080191;28;20518;-89
2022/12/30 12:21:38;;;;;;;1.30;0.90;;;12.70;57.90;;;;;;5080715;28;20512;-88
2022/12/30 12:24:17;;;;;;;1.03;0.93;;;12.80;57.70;;;;;;5066150;28;20519;-87
2022/12/30 12:26:53;;;;;;;2.03;1.33;;;12.80;57.40;;;;;;5088006;28;20819;-87
2022/12/30 12:29:20;;;;;;;1.00;0.90;;;12.90;57.70;;;;;;5070652;28;20464;-87
2022/12/30 12:32:13;;;;;;;2.70;1.00;;;12.80;56.80;;;;;;5066891;28;20476;-87
2022/12/30 12:34:53;;;;;;;1.03;0.93;;;12.70;58.00;;;;;;5070088;28;20504;-86
2022/12/30 12:37:34;;;;;;;3.30;1.10;;;12.90;57.50;;;;;;5086181;28;21025;-86
2022/12/30 12:40:26;;;;;;;2.30;1.40;;;12.90;56.50;;;;;;5078252;28;21413;-87
2022/12/30 12:43:02;;;;;;;3.70;1.80;;;13.10;56.80;;;;;;5052961;28;20478;-87
2022/12/30 12:45:46;;;;;;;1.70;1.20;;;13.10;56.20;;;;;;5072233;28;20454;-85
2022/12/30 12:48:29;;;;;;;3.00;1.00;;;13.00;57.50;;;;;;5077730;28;20458;-88
2022/12/30 12:51:20;;;;;;;1.20;1.07;;;13.10;56.30;;;;;;5050404;28;20447;-88
2022/12/30 12:54:01;;;;;;;1.70;1.23;;;13.20;56.70;;;;;;5054859;28;20439;-87
2022/12/30 12:56:51;;;;;;;1.27;1.10;;;13.10;56.20;;;;;;5067313;28;20470;-88
2022/12/30 12:59:42;;;;;;;1.63;1.53;;;12.90;56.70;;;;;;5069097;28;20435;-87
2022/12/30 13:02:31;;;;;;;1.77;1.10;;;12.90;56.50;;;;;;5067270;28;20449;-86
2022/12/30 13:05:07;;;;;;;3.47;1.13;;;13.10;56.70;;;;;;5048788;27;20451;-87
2022/12/30 13:07:42;;;;;;;2.30;1.00;;;13.20;56.20;;;;;;5055024;28;20474;-88
2022/12/30 13:10:23;;;;;;;2.50;1.30;;;13.20;56.00;;;;;;5065724;27;20447;-87
2022/12/30 13:12:58;;;;;;;2.33;0.80;;;13.40;56.30;;;;;;5067329;28;20450;-86
2022/12/30 13:15:28;;;;;;;2.30;1.17;;;13.50;55.40;;;;;;5050311;28;20595;-87
2022/12/30 13:17:59;;;;;;;2.27;1.70;;;13.70;55.20;;;;;;5056640;28;20559;-88
2022/12/30 13:20:30;;;;;;;2.37;1.30;;;13.80;54.70;;;;;;5064965;28;20443;-88
2022/12/30 13:23:00;;;;;;;1.87;1.30;;;13.70;54.50;;;;;;5064089;28;20530;-88
2022/12/30 13:25:30;;;;;;;1.40;1.20;;;13.80;55.30;;;;;;5065236;28;20457;-88
2022/12/30 13:28:00;;;;;;;1.50;1.27;;;13.90;54.60;;;;;;5055246;28;20467;-87
2022/12/30 13:30:35;;;;;;;1.80;1.30;;;14.00;54.70;;;;;;5066950;28;20570;-88
2022/12/30 13:33:09;;;;;;;4.20;1.33;;;14.00;53.90;;;;;;5063903;28;20450;-88
2022/12/30 13:35:52;;;;;;;1.50;1.00;;;13.90;54.00;;;;;;5064443;28;20558;-88
2022/12/30 13:38:30;;;;;;;2.20;1.10;;;13.90;54.30;;;;;;5063476;28;20976;-88
2022/12/30 13:41:17;;;;;;;3.53;1.37;;;13.80;53.90;;;;;;5047842;28;20443;-87
2022/12/30 13:43:47;;;;;;;4.10;1.37;;;13.40;54.60;;;;;;5063368;28;20964;-89
2022/12/30 13:46:19;;;;;;;3.63;2.30;;;13.20;55.20;;;;;;5056592;28;20845;-87
2022/12/30 13:48:51;;;;;;;3.57;2.20;;;13.00;55.30;;;;;;5081442;28;20465;-88
2022/12/30 13:51:21;;;;;;;2.73;1.80;;;12.80;55.80;;;;;;5059956;28;20490;-88
2022/12/30 13:53:50;;;;;;;1.27;1.17;;;13.00;56.20;;;;;;5065599;28;20447;-88
2022/12/30 13:56:20;;;;;;;1.77;1.20;;;12.80;55.60;;;;;;5078228;28;20473;-87
2022/12/30 13:58:51;;;;;;;2.57;1.40;;;12.30;57.20;;;;;;5068558;28;20449;-88
2022/12/30 14:01:30;;;;;;;6.00;1.80;;;12.50;57.20;;;;;;5067286;28;20451;-87
2022/12/30 14:04:32;;;;;;;4.40;1.77;;;12.90;56.50;;;;;;5043099;28;20539;-88